Terminal Aerodrome Forecast
Issued by NWS Wilmington, OH

Current Version | Previous Version | Text Only | Print | Product List | Glossary On
Versions: 1 2 3 4 5 6 7 8 9 10 11 12 13 14 15 16 17 18 19 20 21 22 23 24 25
996
FTUS41 KILN 232058 AAA
TAFCVG
TAF AMD
KCVG 232058Z 2321/2424 33012KT P6SM OVC008
      TEMPO 2322/2401 3SM -RA BR
     FM240300 31008KT 5SM -DZ BR OVC009
     FM241400 30007KT P6SM OVC010
     FM241900 27006KT P6SM BKN018=

USA.gov is the U.S. government's official web portal to all federal, state and local government web resources and services.